sensor_id;sensor_type;location;lat;lon;timestamp;pressure;altitude;pressure_sealevel;temperature;humidity
68628;BME280;55611;48.602;9.490;2023-06-10T00:04:41;96520;;;22;44
68628;BME280;55611;48.602;9.490;2023-06-10T00:07:12;96520;;;21.9;44
68628;BME280;55611;48.602;9.490;2023-06-10T00:09:43;96520;;;21.8;44
68628;BME280;55611;48.602;9.490;2023-06-10T00:12:13;96520;;;21.6;44
68628;BME280;55611;48.602;9.490;2023-06-10T00:14:44;96520;;;21.5;44
68628;BME280;55611;48.602;9.490;2023-06-10T00:17:15;96520;;;21.4;44
68628;BME280;55611;48.602;9.490;2023-06-10T00:19:46;96520;;;21.3;44
68628;BME280;55611;48.602;9.490;2023-06-10T00:22:16;96520;;;21.3;44.5
68628;BME280;55611;48.602;9.490;2023-06-10T00:24:47;96520;;;21.3;44.5
68628;BME280;55611;48.602;9.490;2023-06-10T00:27:18;96520;;;21.3;44.5
68628;BME280;55611;48.602;9.490;2023-06-10T00:29:49;96530;;;21.3;44.5
68628;BME280;55611;48.602;9.490;2023-06-10T00:32:19;96520;;;21.3;44.5
68628;BME280;55611;48.602;9.490;2023-06-10T00:34:50;96520;;;21.4;44.5
68628;BME280;55611;48.602;9.490;2023-06-10T00:37:21;96520;;;21.5;44.5
68628;BME280;55611;48.602;9.490;2023-06-10T00:39:52;96520;;;21.4;44.5
68628;BME280;55611;48.602;9.490;2023-06-10T00:42:23;96520;;;21.4;44.5
68628;BME280;55611;48.602;9.490;2023-06-10T00:44:54;96520;;;21.4;44.5
68628;BME280;55611;48.602;9.490;2023-06-10T00:47:25;96520;;;21.4;44.5
68628;BME280;55611;48.602;9.490;2023-06-10T00:49:55;96520;;;21.3;44.5
68628;BME280;55611;48.602;9.490;2023-06-10T00:52:27;96510;;;21.3;44.5
68628;BME280;55611;48.602;9.490;2023-06-10T00:54:56;96510;;;21.3;44.5
68628;BME280;55611;48.602;9.490;2023-06-10T00:57:27;96510;;;21.3;44.5
68628;BME280;55611;48.602;9.490;2023-06-10T00:59:58;96510;;;21.3;44.5
68628;BME280;55611;48.602;9.490;2023-06-10T01:02:29;96510;;;21.4;44.5
68628;BME280;55611;48.602;9.490;2023-06-10T01:05:00;96510;;;21.5;44.5
68628;BME280;55611;48.602;9.490;2023-06-10T01:07:33;96510;;;21.4;44.5
68628;BME280;55611;48.602;9.490;2023-06-10T01:10:33;96510;;;21.3;44.5
68628;BME280;55611;48.602;9.490;2023-06-10T01:12:34;96510;;;21.2;44.5
68628;BME280;55611;48.602;9.490;2023-06-10T01:15:03;96510;;;21.2;44.5
68628;BME280;55611;48.602;9.490;2023-06-10T01:17:33;96510;;;21;44.5
68628;BME280;55611;48.602;9.490;2023-06-10T01:20:04;96510;;;20.9;44.5
68628;BME280;55611;48.602;9.490;2023-06-10T01:22:35;96510;;;20.8;44.5
68628;BME280;55611;48.602;9.490;2023-06-10T01:25:06;96510;;;20.7;44.5
68628;BME280;55611;48.602;9.490;2023-06-10T01:27:37;96510;;;20.7;44.5
68628;BME280;55611;48.602;9.490;2023-06-10T01:30:08;96510;;;20.6;44.5
68628;BME280;55611;48.602;9.490;2023-06-10T01:32:40;96500;;;20.6;44.5
68628;BME280;55611;48.602;9.490;2023-06-10T01:35:09;96500;;;20.6;44.5
68628;BME280;55611;48.602;9.490;2023-06-10T01:37:40;96510;;;20.6;44.5
68628;BME280;55611;48.602;9.490;2023-06-10T01:40:11;96500;;;20.6;44.5
68628;BME280;55611;48.602;9.490;2023-06-10T01:42:41;96500;;;20.6;45
68628;BME280;55611;48.602;9.490;2023-06-10T01:45:12;96510;;;20.6;45
68628;BME280;55611;48.602;9.490;2023-06-10T01:47:43;96500;;;20.6;45
68628;BME280;55611;48.602;9.490;2023-06-10T01:50:14;96500;;;20.6;45
68628;BME280;55611;48.602;9.490;2023-06-10T01:52:45;96500;;;20.6;45
68628;BME280;55611;48.602;9.490;2023-06-10T01:55:15;96510;;;20.6;45
68628;BME280;55611;48.602;9.490;2023-06-10T01:57:46;96510;;;20.6;45
68628;BME280;55611;48.602;9.490;2023-06-10T02:00:17;96510;;;20.6;45
68628;BME280;55611;48.602;9.490;2023-06-10T02:02:47;96510;;;20.5;45
68628;BME280;55611;48.602;9.490;2023-06-10T02:05:18;96510;;;20.5;45
68628;BME280;55611;48.602;9.490;2023-06-10T02:07:49;96520;;;20.5;45
68628;BME280;55611;48.602;9.490;2023-06-10T02:10:20;96520;;;20.5;45
68628;BME280;55611;48.602;9.490;2023-06-10T02:12:51;96520;;;20.5;45
68628;BME280;55611;48.602;9.490;2023-06-10T02:15:21;96510;;;20.5;45
68628;BME280;55611;48.602;9.490;2023-06-10T02:17:52;96520;;;20.5;45
68628;BME280;55611;48.602;9.490;2023-06-10T02:20:23;96520;;;20.6;45
68628;BME280;55611;48.602;9.490;2023-06-10T02:22:54;96520;;;20.6;45
68628;BME280;55611;48.602;9.490;2023-06-10T02:25:24;96520;;;20.6;45
68628;BME280;55611;48.602;9.490;2023-06-10T02:27:55;96520;;;20.5;45
68628;BME280;55611;48.602;9.490;2023-06-10T02:30:26;96520;;;20.5;45
68628;BME280;55611;48.602;9.490;2023-06-10T02:32:57;96530;;;20.4;45
68628;BME280;55611;48.602;9.490;2023-06-10T02:35:27;96530;;;20.4;45
68628;BME280;55611;48.602;9.490;2023-06-10T02:37:58;96530;;;20.3;45
68628;BME280;55611;48.602;9.490;2023-06-10T02:40:29;96530;;;20.2;45.5
68628;BME280;55611;48.602;9.490;2023-06-10T02:43:00;96540;;;20.1;45.5
68628;BME280;55611;48.602;9.490;2023-06-10T02:45:31;96540;;;20;45.5
68628;BME280;55611;48.602;9.490;2023-06-10T02:48:01;96540;;;20;45.5
68628;BME280;55611;48.602;9.490;2023-06-10T02:50:32;96550;;;19.9;45.5
68628;BME280;55611;48.602;9.490;2023-06-10T02:53:03;96550;;;19.9;45.5
68628;BME280;55611;48.602;9.490;2023-06-10T02:55:34;96550;;;19.7;45.5
68628;BME280;55611;48.602;9.490;2023-06-10T02:58:04;96550;;;19.6;45.5
68628;BME280;55611;48.602;9.490;2023-06-10T03:00:35;96550;;;19.5;45.5
68628;BME280;55611;48.602;9.490;2023-06-10T03:03:06;96540;;;19.4;45.5
68628;BME280;55611;48.602;9.490;2023-06-10T03:05:37;96540;;;19.3;45.5
68628;BME280;55611;48.602;9.490;2023-06-10T03:08:08;96550;;;19.3;45.5
68628;BME280;55611;48.602;9.490;2023-06-10T03:10:38;96550;;;19.4;45.5
68628;BME280;55611;48.602;9.490;2023-06-10T03:13:09;96550;;;19.5;46
68628;BME280;55611;48.602;9.490;2023-06-10T03:15:40;96550;;;19.6;46
68628;BME280;55611;48.602;9.490;2023-06-10T03:18:11;96550;;;19.7;46
68628;BME280;55611;48.602;9.490;2023-06-10T03:20:41;96550;;;19.8;46
68628;BME280;55611;48.602;9.490;2023-06-10T03:23:12;96560;;;19.8;45.5
68628;BME280;55611;48.602;9.490;2023-06-10T03:25:43;96560;;;19.8;45.5
68628;BME280;55611;48.602;9.490;2023-06-10T03:28:14;96560;;;19.8;45.5
68628;BME280;55611;48.602;9.490;2023-06-10T03:30:45;96560;;;19.8;45.5
68628;BME280;55611;48.602;9.490;2023-06-10T03:33:15;96560;;;19.8;45.5
68628;BME280;55611;48.602;9.490;2023-06-10T03:35:46;96570;;;19.8;45.5
68628;BME280;55611;48.602;9.490;2023-06-10T03:38:17;96570;;;19.7;46
68628;BME280;55611;48.602;9.490;2023-06-10T03:40:48;96570;;;19.4;46
68628;BME280;55611;48.602;9.490;2023-06-10T03:43:18;96570;;;19.2;46
68628;BME280;55611;48.602;9.490;2023-06-10T03:45:49;96580;;;19.1;46
68628;BME280;55611;48.602;9.490;2023-06-10T03:48:20;96580;;;19.1;46
68628;BME280;55611;48.602;9.490;2023-06-10T03:50:51;96580;;;19.1;46
68628;BME280;55611;48.602;9.490;2023-06-10T03:53:21;96580;;;19;46
68628;BME280;55611;48.602;9.490;2023-06-10T03:55:52;96590;;;19.1;46
68628;BME280;55611;48.602;9.490;2023-06-10T03:58:23;96590;;;19.1;46
68628;BME280;55611;48.602;9.490;2023-06-10T04:00:54;96590;;;19.2;46
68628;BME280;55611;48.602;9.490;2023-06-10T04:03:25;96590;;;19.2;46
68628;BME280;55611;48.602;9.490;2023-06-10T04:05:55;96590;;;19.3;46
68628;BME280;55611;48.602;9.490;2023-06-10T04:08:26;96580;;;19.4;46
68628;BME280;55611;48.602;9.490;2023-06-10T04:10:57;96590;;;19.6;46
68628;BME280;55611;48.602;9.490;2023-06-10T04:13:28;96590;;;19.8;45.5
68628;BME280;55611;48.602;9.490;2023-06-10T04:15:58;96590;;;20;45.5
68628;BME280;55611;48.602;9.490;2023-06-10T04:18:29;96590;;;20.2;45.5
68628;BME280;55611;48.602;9.490;2023-06-10T04:21:00;96590;;;20.4;45.5
68628;BME280;55611;48.602;9.490;2023-06-10T04:23:31;96590;;;20.6;45.5
68628;BME280;55611;48.602;9.490;2023-06-10T04:26:02;96590;;;20.7;45.5
68628;BME280;55611;48.602;9.490;2023-06-10T04:28:32;96590;;;20.9;45
68628;BME280;55611;48.602;9.490;2023-06-10T04:31:03;96590;;;21;45
68628;BME280;55611;48.602;9.490;2023-06-10T04:33:34;96590;;;21.1;45
68628;BME280;55611;48.602;9.490;2023-06-10T04:36:05;96590;;;21.3;45
68628;BME280;55611;48.602;9.490;2023-06-10T04:38:35;96600;;;21.4;45
68628;BME280;55611;48.602;9.490;2023-06-10T04:41:06;96600;;;21.5;45
68628;BME280;55611;48.602;9.490;2023-06-10T04:43:37;96590;;;21.4;45
68628;BME280;55611;48.602;9.490;2023-06-10T04:46:08;96590;;;21.4;45.5
68628;BME280;55611;48.602;9.490;2023-06-10T04:48:39;96590;;;21.4;45.5
68628;BME280;55611;48.602;9.490;2023-06-10T04:51:09;96600;;;21.5;45
68628;BME280;55611;48.602;9.490;2023-06-10T04:53:40;96600;;;21.6;45.5
68628;BME280;55611;48.602;9.490;2023-06-10T04:56:11;96600;;;21.6;45.5
68628;BME280;55611;48.602;9.490;2023-06-10T04:58:42;96600;;;21.6;45.5
68628;BME280;55611;48.602;9.490;2023-06-10T05:01:12;96600;;;21.5;45.5
68628;BME280;55611;48.602;9.490;2023-06-10T05:03:43;96610;;;21.4;45.5
68628;BME280;55611;48.602;9.490;2023-06-10T05:06:14;96610;;;21.3;45.5
68628;BME280;55611;48.602;9.490;2023-06-10T05:08:45;96610;;;21.3;45.5
68628;BME280;55611;48.602;9.490;2023-06-10T05:11:16;96610;;;21.2;45.5
68628;BME280;55611;48.602;9.490;2023-06-10T05:13:46;96610;;;21.2;45.5
68628;BME280;55611;48.602;9.490;2023-06-10T05:16:17;96610;;;21.1;46
68628;BME280;55611;48.602;9.490;2023-06-10T05:18:48;96610;;;21.2;45.5
68628;BME280;55611;48.602;9.490;2023-06-10T05:21:19;96620;;;21.2;46
68628;BME280;55611;48.602;9.490;2023-06-10T05:23:49;96610;;;21.3;46
68628;BME280;55611;48.602;9.490;2023-06-10T05:26:20;96610;;;21.5;46
68628;BME280;55611;48.602;9.490;2023-06-10T05:28:51;96610;;;21.6;45.5
68628;BME280;55611;48.602;9.490;2023-06-10T05:31:22;96610;;;21.7;45.5
68628;BME280;55611;48.602;9.490;2023-06-10T05:33:53;96610;;;21.8;45.5
68628;BME280;55611;48.602;9.490;2023-06-10T05:36:23;96620;;;21.9;45.5
68628;BME280;55611;48.602;9.490;2023-06-10T05:38:54;96620;;;21.9;45.5
68628;BME280;55611;48.602;9.490;2023-06-10T05:41:25;96620;;;21.9;45.5
68628;BME280;55611;48.602;9.490;2023-06-10T05:43:56;96620;;;21.9;45.5
68628;BME280;55611;48.602;9.490;2023-06-10T05:46:26;96620;;;21.9;45.5
68628;BME280;55611;48.602;9.490;2023-06-10T05:48:57;96620;;;21.8;45.5
68628;BME280;55611;48.602;9.490;2023-06-10T05:51:28;96630;;;21.8;45.5
68628;BME280;55611;48.602;9.490;2023-06-10T05:53:59;96630;;;21.8;46
68628;BME280;55611;48.602;9.490;2023-06-10T05:56:29;96630;;;21.8;46
68628;BME280;55611;48.602;9.490;2023-06-10T05:59:00;96630;;;21.8;46
68628;BME280;55611;48.602;9.490;2023-06-10T06:01:31;96630;;;21.9;46
68628;BME280;55611;48.602;9.490;2023-06-10T06:04:02;96630;;;22;46
68628;BME280;55611;48.602;9.490;2023-06-10T06:06:34;96620;;;22;46
68628;BME280;55611;48.602;9.490;2023-06-10T06:09:03;96630;;;22.1;45.5
68628;BME280;55611;48.602;9.490;2023-06-10T06:11:34;96630;;;22.2;45.5
68628;BME280;55611;48.602;9.490;2023-06-10T06:14:05;96630;;;22.2;45.5
68628;BME280;55611;48.602;9.490;2023-06-10T06:16:36;96640;;;22.3;45.5
68628;BME280;55611;48.602;9.490;2023-06-10T06:19:06;96640;;;22.4;45.5
68628;BME280;55611;48.602;9.490;2023-06-10T06:21:37;96640;;;22.5;45.5
68628;BME280;55611;48.602;9.490;2023-06-10T06:24:08;96640;;;22.5;45.5
68628;BME280;55611;48.602;9.490;2023-06-10T06:26:39;96630;;;22.5;45.5
68628;BME280;55611;48.602;9.490;2023-06-10T06:29:09;96630;;;22.6;45.5
68628;BME280;55611;48.602;9.490;2023-06-10T06:31:40;96630;;;22.6;45.5
68628;BME280;55611;48.602;9.490;2023-06-10T06:34:11;96630;;;22.8;45.5
68628;BME280;55611;48.602;9.490;2023-06-10T06:36:42;96630;;;22.9;45.5
68628;BME280;55611;48.602;9.490;2023-06-10T06:54:17;96630;;;23.5;45.5
68628;BME280;55611;48.602;9.490;2023-06-10T06:56:48;96640;;;23.5;45.5
68628;BME280;55611;48.602;9.490;2023-06-10T06:59:19;96640;;;23.7;45.5
68628;BME280;55611;48.602;9.490;2023-06-10T07:01:50;96640;;;23.8;45.5
68628;BME280;55611;48.602;9.490;2023-06-10T07:04:20;96640;;;23.9;45
68628;BME280;55611;48.602;9.490;2023-06-10T07:06:51;96640;;;24;45
68628;BME280;55611;48.602;9.490;2023-06-10T07:09:22;96640;;;24.1;45
68628;BME280;55611;48.602;9.490;2023-06-10T07:11:53;96640;;;24.2;45
68628;BME280;55611;48.602;9.490;2023-06-10T07:14:23;96650;;;24.2;45
68628;BME280;55611;48.602;9.490;2023-06-10T07:16:54;96650;;;24.2;45
68628;BME280;55611;48.602;9.490;2023-06-10T07:19:25;96650;;;24.3;45
68628;BME280;55611;48.602;9.490;2023-06-10T07:21:56;96650;;;24.5;45
68628;BME280;55611;48.602;9.490;2023-06-10T07:24:27;96650;;;24.6;45
68628;BME280;55611;48.602;9.490;2023-06-10T07:26:57;96640;;;24.6;45
68628;BME280;55611;48.602;9.490;2023-06-10T07:27:49;98280;;;20;62
68628;BME280;55611;48.602;9.490;2023-06-10T07:29:28;96640;;;24.7;45
68628;BME280;55611;48.602;9.490;2023-06-10T07:31:59;96630;;;24.8;45
68628;BME280;55611;48.602;9.490;2023-06-10T07:34:30;96640;;;24.9;45
68628;BME280;55611;48.602;9.490;2023-06-10T07:37:00;96640;;;25.1;44.5
68628;BME280;55611;48.602;9.490;2023-06-10T07:39:31;96640;;;25.1;44.5
68628;BME280;55611;48.602;9.490;2023-06-10T07:42:02;96630;;;25.1;44.5
68628;BME280;55611;48.602;9.490;2023-06-10T07:44:33;96630;;;25.3;44.5
68628;BME280;55611;48.602;9.490;2023-06-10T07:47:04;96630;;;25.4;44.5
68628;BME280;55611;48.602;9.490;2023-06-10T07:49:34;96630;;;25.5;44.5
68628;BME280;55611;48.602;9.490;2023-06-10T07:52:05;96630;;;25.6;44.5
68628;BME280;55611;48.602;9.490;2023-06-10T07:54:36;96630;;;25.8;44.5
68628;BME280;55611;48.602;9.490;2023-06-10T07:57:07;96620;;;25.8;44.5
68628;BME280;55611;48.602;9.490;2023-06-10T07:59:38;96620;;;25.8;44.5
68628;BME280;55611;48.602;9.490;2023-06-10T08:02:08;96620;;;25.8;44.5
68628;BME280;55611;48.602;9.490;2023-06-10T08:04:39;96620;;;25.9;44.5
68628;BME280;55611;48.602;9.490;2023-06-10T08:07:10;96630;;;25.9;44.5
68628;BME280;55611;48.602;9.490;2023-06-10T08:09:40;96620;;;25.9;44.5
68628;BME280;55611;48.602;9.490;2023-06-10T08:12:11;96620;;;26;44.5
68628;BME280;55611;48.602;9.490;2023-06-10T08:14:42;96620;;;26.2;44
68628;BME280;55611;48.602;9.490;2023-06-10T08:17:13;96620;;;26.1;44
68628;BME280;55611;48.602;9.490;2023-06-10T08:19:44;96620;;;26.1;44
68628;BME280;55611;48.602;9.490;2023-06-10T08:22:14;96620;;;26.1;44
68628;BME280;55611;48.602;9.490;2023-06-10T08:24:45;96620;;;26.1;44
68628;BME280;55611;48.602;9.490;2023-06-10T08:27:16;96620;;;26.1;44
68628;BME280;55611;48.602;9.490;2023-06-10T08:29:47;96620;;;26.1;44
68628;BME280;55611;48.602;9.490;2023-06-10T08:32:17;96620;;;26.1;44
68628;BME280;55611;48.602;9.490;2023-06-10T08:34:48;96620;;;26.1;44
68628;BME280;55611;48.602;9.490;2023-06-10T08:37:19;96620;;;26.1;44
68628;BME280;55611;48.602;9.490;2023-06-10T08:39:50;96620;;;26.1;44
68628;BME280;55611;48.602;9.490;2023-06-10T08:42:28;96620;;;26.2;44
68628;BME280;55611;48.602;9.490;2023-06-10T08:44:53;96620;;;26.3;44
68628;BME280;55611;48.602;9.490;2023-06-10T08:47:22;96620;;;26.3;44
68628;BME280;55611;48.602;9.490;2023-06-10T08:49:53;96620;;;26.4;44
68628;BME280;55611;48.602;9.490;2023-06-10T08:52:24;96630;;;26.6;44
68628;BME280;55611;48.602;9.490;2023-06-10T08:55:10;96620;;;26.9;44
68628;BME280;55611;48.602;9.490;2023-06-10T08:57:26;96620;;;27.1;44
68628;BME280;55611;48.602;9.490;2023-06-10T08:59:56;96620;;;27.3;43.5
68628;BME280;55611;48.602;9.490;2023-06-10T09:02:27;96620;;;27.4;43.5
68628;BME280;55611;48.602;9.490;2023-06-10T09:04:58;96620;;;27.4;43.5
68628;BME280;55611;48.602;9.490;2023-06-10T09:07:29;96610;;;27.2;43.5
68628;BME280;55611;48.602;9.490;2023-06-10T09:09:59;96610;;;27.3;43.5
68628;BME280;55611;48.602;9.490;2023-06-10T09:12:30;96610;;;27.2;43.5
68628;BME280;55611;48.602;9.490;2023-06-10T09:15:01;96620;;;27.1;43.5
68628;BME280;55611;48.602;9.490;2023-06-10T09:20:02;96610;;;27.2;43.5
68628;BME280;55611;48.602;9.490;2023-06-10T09:22:33;96620;;;27;43.5
68628;BME280;55611;48.602;9.490;2023-06-10T09:25:05;96620;;;26.9;43.5
68628;BME280;55611;48.602;9.490;2023-06-10T09:27:50;96610;;;26.9;43.5
68628;BME280;55611;48.602;9.490;2023-06-10T09:30:06;96610;;;27.1;43.5
68628;BME280;55611;48.602;9.490;2023-06-10T09:32:38;96610;;;27.1;43.5
68628;BME280;55611;48.602;9.490;2023-06-10T09:35:10;96610;;;27.3;43.5
68628;BME280;55611;48.602;9.490;2023-06-10T09:37:38;96610;;;27.3;43.5
68628;BME280;55611;48.602;9.490;2023-06-10T09:40:08;96610;;;27.1;43.5
68628;BME280;55611;48.602;9.490;2023-06-10T09:42:39;96610;;;27.3;43.5
68628;BME280;55611;48.602;9.490;2023-06-10T09:45:10;96610;;;27.4;43.5
68628;BME280;55611;48.602;9.490;2023-06-10T09:47:41;96610;;;27.4;43.5
68628;BME280;55611;48.602;9.490;2023-06-10T09:50:11;96610;;;27.6;43.5
68628;BME280;55611;48.602;9.490;2023-06-10T09:52:42;96610;;;27.4;43
68628;BME280;55611;48.602;9.490;2023-06-10T09:55:13;96610;;;27.2;43.5
68628;BME280;55611;48.602;9.490;2023-06-10T09:57:44;96610;;;27.2;43.5
68628;BME280;55611;48.602;9.490;2023-06-10T10:00:15;96610;;;27.4;43.5
68628;BME280;55611;48.602;9.490;2023-06-10T10:02:47;96610;;;27.7;43.5
68628;BME280;55611;48.602;9.490;2023-06-10T10:05:17;96600;;;27.9;43
68628;BME280;55611;48.602;9.490;2023-06-10T10:07:47;96600;;;28.1;43
68628;BME280;55611;48.602;9.490;2023-06-10T10:10:19;96600;;;28.3;43
68628;BME280;55611;48.602;9.490;2023-06-10T10:12:51;96600;;;28.6;43
68628;BME280;55611;48.602;9.490;2023-06-10T10:15:19;96600;;;28.5;43
68628;BME280;55611;48.602;9.490;2023-06-10T10:18:21;96600;;;28.2;43
68628;BME280;55611;48.602;9.490;2023-06-10T10:20:22;96600;;;27.8;43
68628;BME280;55611;48.602;9.490;2023-06-10T10:22:52;96600;;;27.8;43
68628;BME280;55611;48.602;9.490;2023-06-10T10:25:23;96590;;;27.9;43
68628;BME280;55611;48.602;9.490;2023-06-10T10:27:57;96590;;;27.9;43.5
68628;BME280;55611;48.602;9.490;2023-06-10T10:30:24;96590;;;27.9;43.5
68628;BME280;55611;48.602;9.490;2023-06-10T10:32:57;96600;;;27.9;43
68628;BME280;55611;48.602;9.490;2023-06-10T10:35:26;96600;;;27.7;43
68628;BME280;55611;48.602;9.490;2023-06-10T10:37:56;96590;;;27.5;43
68628;BME280;55611;48.602;9.490;2023-06-10T10:40:27;96590;;;27.6;43
68628;BME280;55611;48.602;9.490;2023-06-10T10:42:58;96590;;;27.8;43
68628;BME280;55611;48.602;9.490;2023-06-10T10:45:29;96590;;;28;43
68628;BME280;55611;48.602;9.490;2023-06-10T10:48:01;96590;;;28;43
68628;BME280;55611;48.602;9.490;2023-06-10T10:50:30;96590;;;28.2;43
68628;BME280;55611;48.602;9.490;2023-06-10T10:53:02;96600;;;28.2;43
68628;BME280;55611;48.602;9.490;2023-06-10T10:55:32;96590;;;28.3;43
68628;BME280;55611;48.602;9.490;2023-06-10T10:58:04;96590;;;28.3;43
68628;BME280;55611;48.602;9.490;2023-06-10T11:00:34;96590;;;28.3;43
68628;BME280;55611;48.602;9.490;2023-06-10T11:03:06;96590;;;28.3;43
68628;BME280;55611;48.602;9.490;2023-06-10T11:05:36;96580;;;28.5;42.5
68628;BME280;55611;48.602;9.490;2023-06-10T11:08:06;96580;;;28.7;42.5
68628;BME280;55611;48.602;9.490;2023-06-10T11:10:38;96590;;;28.6;42.5
68628;BME280;55611;48.602;9.490;2023-06-10T11:13:08;96580;;;28.6;42.5
68628;BME280;55611;48.602;9.490;2023-06-10T11:15:39;96590;;;28.5;42.5
68628;BME280;55611;48.602;9.490;2023-06-10T11:18:10;96590;;;28.3;42.5
68628;BME280;55611;48.602;9.490;2023-06-10T11:21:10;96590;;;28.4;42.5
68628;BME280;55611;48.602;9.490;2023-06-10T11:23:10;96580;;;28.5;42.5
68628;BME280;55611;48.602;9.490;2023-06-10T11:25:41;96580;;;28.6;42.5
68628;BME280;55611;48.602;9.490;2023-06-10T11:28:19;96580;;;28.6;42.5
68628;BME280;55611;48.602;9.490;2023-06-10T11:30:42;96580;;;28.6;42.5
68628;BME280;55611;48.602;9.490;2023-06-10T11:33:16;96580;;;28.5;42.5
68628;BME280;55611;48.602;9.490;2023-06-10T11:35:44;96580;;;28.5;42.5
68628;BME280;55611;48.602;9.490;2023-06-10T11:38:15;96580;;;28.5;42.5
68628;BME280;55611;48.602;9.490;2023-06-10T11:40:48;96580;;;28.5;42.5
68628;BME280;55611;48.602;9.490;2023-06-10T11:43:17;96570;;;28.7;42.5
68628;BME280;55611;48.602;9.490;2023-06-10T11:45:47;96570;;;28.8;42.5
68628;BME280;55611;48.602;9.490;2023-06-10T11:48:18;96570;;;28.8;42.5
68628;BME280;55611;48.602;9.490;2023-06-10T11:50:49;96570;;;28.9;42.5
68628;BME280;55611;48.602;9.490;2023-06-10T11:55:50;96560;;;28.9;42.5
68628;BME280;55611;48.602;9.490;2023-06-10T11:58:21;96570;;;29.1;42.5
68628;BME280;55611;48.602;9.490;2023-06-10T12:00:53;96560;;;29.1;42.5
68628;BME280;55611;48.602;9.490;2023-06-10T12:03:23;96560;;;29.1;42.5
68628;BME280;55611;48.602;9.490;2023-06-10T12:05:55;96570;;;29;42
68628;BME280;55611;48.602;9.490;2023-06-10T12:08:24;96560;;;28.8;42
68628;BME280;55611;48.602;9.490;2023-06-10T12:10:55;96560;;;28.7;42
68628;BME280;55611;48.602;9.490;2023-06-10T12:13:26;96560;;;28.8;42.5
68628;BME280;55611;48.602;9.490;2023-06-10T12:16:05;96560;;;28.9;42.5
68628;BME280;55611;48.602;9.490;2023-06-10T12:18:27;96550;;;29;42.5
68628;BME280;55611;48.602;9.490;2023-06-10T12:20:58;96550;;;29;42.5
68628;BME280;55611;48.602;9.490;2023-06-10T12:23:29;96550;;;29.2;42
68628;BME280;55611;48.602;9.490;2023-06-10T12:26:00;96540;;;29.3;42
68628;BME280;55611;48.602;9.490;2023-06-10T12:28:30;96540;;;29.2;42
68628;BME280;55611;48.602;9.490;2023-06-10T12:31:08;96530;;;29.3;42
68628;BME280;55611;48.602;9.490;2023-06-10T12:33:32;96540;;;29.5;42
68628;BME280;55611;48.602;9.490;2023-06-10T12:36:03;96540;;;29.5;42
68628;BME280;55611;48.602;9.490;2023-06-10T12:38:33;96540;;;29.6;42
68628;BME280;55611;48.602;9.490;2023-06-10T12:43:35;96540;;;29.3;42
68628;BME280;55611;48.602;9.490;2023-06-10T12:46:09;96540;;;29.5;42
68628;BME280;55611;48.602;9.490;2023-06-10T12:48:36;96540;;;29.6;42
68628;BME280;55611;48.602;9.490;2023-06-10T12:51:07;96530;;;29.7;42
68628;BME280;55611;48.602;9.490;2023-06-10T12:53:38;96540;;;29.8;42
68628;BME280;55611;48.602;9.490;2023-06-10T12:56:09;96540;;;29.9;41.5
68628;BME280;55611;48.602;9.490;2023-06-10T12:58:40;96540;;;29.7;41.5
68628;BME280;55611;48.602;9.490;2023-06-10T13:01:10;96540;;;29.4;41.5
68628;BME280;55611;48.602;9.490;2023-06-10T13:03:41;96530;;;29.4;42
68628;BME280;55611;48.602;9.490;2023-06-10T13:06:12;96530;;;29.5;42
68628;BME280;55611;48.602;9.490;2023-06-10T13:08:43;96530;;;29.6;42
68628;BME280;55611;48.602;9.490;2023-06-10T13:11:13;96540;;;29.6;42
68628;BME280;55611;48.602;9.490;2023-06-10T13:13:44;96540;;;29.5;42
68628;BME280;55611;48.602;9.490;2023-06-10T13:16:15;96530;;;29.5;42
68628;BME280;55611;48.602;9.490;2023-06-10T13:18:46;96530;;;29.6;41.5
68628;BME280;55611;48.602;9.490;2023-06-10T13:21:17;96530;;;29.6;41.5
68628;BME280;55611;48.602;9.490;2023-06-10T13:23:47;96520;;;29.5;41.5
68628;BME280;55611;48.602;9.490;2023-06-10T13:26:18;96520;;;29.6;41.5
68628;BME280;55611;48.602;9.490;2023-06-10T13:28:49;96520;;;29.7;41.5
68628;BME280;55611;48.602;9.490;2023-06-10T13:31:20;96510;;;29.8;41.5
68628;BME280;55611;48.602;9.490;2023-06-10T13:33:50;96510;;;29.9;41.5
68628;BME280;55611;48.602;9.490;2023-06-10T13:36:21;96510;;;29.9;41.5
68628;BME280;55611;48.602;9.490;2023-06-10T13:38:52;96510;;;29.9;41.5
68628;BME280;55611;48.602;9.490;2023-06-10T13:41:23;96510;;;30;41.5
68628;BME280;55611;48.602;9.490;2023-06-10T13:43:54;96510;;;29.8;41.5
68628;BME280;55611;48.602;9.490;2023-06-10T13:46:24;96510;;;29.6;41.5
68628;BME280;55611;48.602;9.490;2023-06-10T13:48:55;96510;;;29.5;41.5
68628;BME280;55611;48.602;9.490;2023-06-10T13:51:26;96510;;;29.6;41.5
68628;BME280;55611;48.602;9.490;2023-06-10T13:53:57;96510;;;29.6;41.5
68628;BME280;55611;48.602;9.490;2023-06-10T13:56:28;96510;;;29.7;41.5
68628;BME280;55611;48.602;9.490;2023-06-10T13:58:58;96500;;;29.8;41.5
68628;BME280;55611;48.602;9.490;2023-06-10T14:01:29;96500;;;30;41.5
68628;BME280;55611;48.602;9.490;2023-06-10T14:04:00;96500;;;30;41.5
68628;BME280;55611;48.602;9.490;2023-06-10T14:06:31;96500;;;30;41.5
68628;BME280;55611;48.602;9.490;2023-06-10T14:09:01;96500;;;29.9;41
68628;BME280;55611;48.602;9.490;2023-06-10T14:11:32;96500;;;29.6;41.5
68628;BME280;55611;48.602;9.490;2023-06-10T14:14:03;96510;;;29.4;41.5
68628;BME280;55611;48.602;9.490;2023-06-10T14:16:34;96510;;;29.3;41.5
68628;BME280;55611;48.602;9.490;2023-06-10T14:19:04;96510;;;29.2;41.5
68628;BME280;55611;48.602;9.490;2023-06-10T14:21:35;96510;;;29;41.5
68628;BME280;55611;48.602;9.490;2023-06-10T14:24:06;96510;;;28.9;41.5
68628;BME280;55611;48.602;9.490;2023-06-10T14:26:37;96510;;;28.8;41.5
68628;BME280;55611;48.602;9.490;2023-06-10T14:29:08;96500;;;28.8;41.5
68628;BME280;55611;48.602;9.490;2023-06-10T14:31:38;96500;;;29;41.5
68628;BME280;55611;48.602;9.490;2023-06-10T14:34:09;96500;;;29.3;41.5
68628;BME280;55611;48.602;9.490;2023-06-10T14:36:40;96500;;;29.5;41.5
68628;BME280;55611;48.602;9.490;2023-06-10T14:39:11;96500;;;29.7;41.5
68628;BME280;55611;48.602;9.490;2023-06-10T14:41:41;96500;;;29.7;41.5
68628;BME280;55611;48.602;9.490;2023-06-10T14:44:12;96500;;;29.6;41.5
68628;BME280;55611;48.602;9.490;2023-06-10T14:46:43;96490;;;29.4;41.5
68628;BME280;55611;48.602;9.490;2023-06-10T14:49:14;96490;;;29.2;41.5
68628;BME280;55611;48.602;9.490;2023-06-10T14:51:44;96490;;;29.1;41.5